Flight Track Log - Related Links

Times and Time Zones

All times are in EDT time to prevent confusion due to time zone crossing. See the SWA158 flight status page for this flight to view local times or setup timezone preferences in your user account.

Time Position Orientation Groundspeed Altitude Reporting Facility
EDT Latitude Longitude Course Direction KTS MPH feet Rate Location/Type
Tue 10:47:56 AM 40.8033 -111.9633 353° North 162 186 4,900  Level Salt Lake Center
Tue 10:48:56 AM 40.8611 -111.9722 353° North 212 244 7,100 2,074 Climbing Salt Lake Center
Tue 10:49:17 AM 40.8744 -111.9725 359° North 213 245 7,700 2,675 Climbing Salt Lake Center
Tue 10:50:19 AM 40.9444 -111.9819 354° North 248 285 10,800 2,661 Climbing Salt Lake Center
Tue 10:51:21 AM 41.0219 -111.9819 360° North 291 335 13,200 2,537 Climbing Salt Lake Center
Tue 10:52:22 AM 41.0433 -111.8628 77° East 353 406 16,000 2,000 Climbing Salt Lake Center
Tue 10:53:24 AM 41.0322 -111.7053 95° East 411 473 17,300 1,790 Climbing Salt Lake Center
Tue 10:54:26 AM 41.0350 -111.5392 89° East 456 525 19,700 2,516 Climbing Salt Lake Center
Tue 10:55:28 AM 41.0533 -111.3308 83° East 477 549 22,500 2,341 Climbing Salt Lake Center
Tue 10:56:29 AM 41.0694 -111.1517 83° East 488 562 24,500 1,854 Climbing Salt Lake Center
Tue 10:57:31 AM 41.0961 -110.9681 79° East 508 585 26,300 2,081 Climbing Salt Lake Center
Tue 10:58:33 AM 41.1242 -110.7739 79° East 512 589 28,800 1,452 Climbing Salt Lake Center
Tue 10:59:35 AM 41.1492 -110.5961 79° East 513 590 29,300 1,073 Climbing Salt Lake Center
Tue 11:00:36 AM 41.1775 -110.3833 80° East 525 604 31,000 829 Climbing Salt Lake Center
Tue 11:01:38 AM 41.2031 -110.1961 80° East 539 620 31,000  Level Salt Lake Center
Tue 11:02:40 AM 41.2317 -109.9753 80° East 543 625 31,000  Level Salt Lake Center
Tue 11:03:42 AM 41.2567 -109.7858 80° East 545 627 31,000  Level Salt Lake Center
Tue 11:04:43 AM 41.2808 -109.5956 80° East 548 631 31,000 829 Level Salt Lake Center
Tue 11:05:45 AM 41.3086 -109.3781 80° East 540 621 32,700 1,548 Climbing Salt Lake Center
Tue 11:06:47 AM 41.3317 -109.1911 81° East 541 623 34,200 1,597 Climbing Salt Lake Center
Tue 11:07:49 AM 41.3589 -108.9797 80° East 536 617 36,000 1,366 Climbing Salt Lake Center
Tue 11:08:50 AM 41.3842 -108.7689 81° East 524 603 37,000 488 Climbing Salt Lake Center
Tue 11:09:52 AM 41.4061 -108.5861 81° East 525 604 37,000  Level Salt Lake Center
Tue 11:10:54 AM 41.4314 -108.3706 81° East 529 609 37,000  Level Salt Lake Center
Tue 11:11:56 AM 41.4528 -108.1828 81° East 535 616 37,000  Level Salt Lake Center
Tue 11:12:35 AM 41.4667 -108.0592 81° East 528 608 37,000  Level Denver Center
Tue 11:13:37 AM 41.4922 -107.8417 81° East 533 613 37,000  Level Denver Center
Tue 11:14:39 AM 41.5125 -107.6542 82° East 533 613 37,000  Level Denver Center
Tue 11:15:41 AM 41.5353 -107.4389 82° East 528 608 37,000  Level Denver Center
Tue 11:16:43 AM 41.5561 -107.2533 81° East 527 606 37,000  Level Denver Center
Tue 11:17:45 AM 41.5753 -107.0689 82° East 525 604 37,000  Level Denver Center
Tue 11:18:47 AM 41.5992 -106.8531 82° East 528 608 37,000  Level Denver Center
Tue 11:19:49 AM 41.6181 -106.6683 82° East 526 605 37,000  Level Denver Center
Tue 11:20:51 AM 41.6392 -106.4508 83° East 526 605 37,000  Level Denver Center
Tue 11:21:53 AM 41.6581 -106.2653 82° East 526 605 37,000  Level Denver Center
Tue 11:22:55 AM 41.6783 -106.0517 83° East 521 600 37,000  Level Denver Center
Tue 11:23:57 AM 41.6956 -105.8667 83° East 523 602 37,000  Level Denver Center
Tue 11:24:59 AM 41.7169 -105.6525 82° East 524 603 37,000  Level Denver Center
Tue 11:26:01 AM 41.7333 -105.4667 83° East 525 604 37,000  Level Denver Center
Tue 11:27:03 AM 41.7517 -105.2492 83° East 528 608 37,000  Level Denver Center
Tue 11:28:05 AM 41.7678 -105.0628 83° East 529 609 37,000  Level Denver Center
Tue 11:29:07 AM 41.7858 -104.8475 84° East 526 605 37,000  Level Denver Center
Tue 11:30:10 AM 41.8022 -104.6636 83° East 523 602 37,000  Level Denver Center
Tue 11:31:12 AM 41.8200 -104.4497 84° East 520 598 37,000  Level Denver Center
Tue 11:32:14 AM 41.8336 -104.2650 84° East 523 602 37,000  Level Denver Center
Tue 11:33:16 AM 41.8500 -104.0528 84° East 518 596 37,000  Level Denver Center
Tue 11:34:18 AM 41.8661 -103.8689 83° East 520 598 37,000  Level Denver Center
Tue 11:35:20 AM 41.8814 -103.6542 84° East 520 598 37,000  Level Denver Center
Tue 11:36:22 AM 41.8919 -103.4711 86° East 519 597 37,000  Level Denver Center
Tue 11:37:24 AM 41.8764 -103.2572 96° East 519 597 37,000  Level Denver Center
Tue 11:38:26 AM 41.8617 -103.0736 96° East 519 597 37,000  Level Denver Center
Tue 11:39:28 AM 41.8442 -102.8611 96° East 516 594 37,000  Level Denver Center
Tue 11:40:30 AM 41.8289 -102.6778 96° East 518 596 37,000  Level Denver Center
Tue 11:41:32 AM 41.8100 -102.4642 97° East 519 597 37,000  Level Denver Center
Tue 11:42:34 AM 41.7944 -102.2817 96° East 515 593 37,000  Level Denver Center
Tue 11:43:36 AM 41.7744 -102.0742 97° East 513 590 37,000  Level Denver Center
Tue 11:45:40 AM 41.7394 -101.6808 97° East 511 588 37,000  Level Denver Center
Tue 11:46:42 AM 41.7211 -101.5000 98° East 512 589 37,000  Level Denver Center
Tue 11:47:44 AM 41.7011 -101.2900 97° East 509 586 37,000  Level Denver Center
Tue 11:48:46 AM 41.6836 -101.1103 97° East 508 585 37,000  Level Denver Center
Tue 11:49:48 AM 41.6656 -100.9319 98° East 506 582 37,000  Level Denver Center
Tue 11:50:50 AM 41.6456 -100.7264 97° East 501 577 37,000  Level Denver Center
Tue 11:51:52 AM 41.6267 -100.5489 98° East 501 577 37,000  Level Denver Center
Tue 11:52:54 AM 41.6044 -100.3433 98° East 500 575 37,000  Level Denver Center
Tue 11:53:57 AM 41.5858 -100.1675 98° East 499 574 37,000  Level Denver Center
Tue 11:54:59 AM 41.5639 -99.9642 98° East 496 571 37,000  Level Denver Center
Tue 11:56:01 AM 41.5444 -99.7881 98° East 498 573 37,000  Level Denver Center
Tue 11:57:03 AM 41.5236 -99.6047 99° East 500 575 37,000  Level Denver Center
Tue 11:58:05 AM 41.5033 -99.4200 98° East 500 575 37,000  Level Denver Center
Tue 11:59:07 AM 41.4822 -99.2353 99° East 502 578 37,000  Level Denver Center
Tue 12:00:09 PM 41.4600 -99.0514 99° East 499 574 37,000  Level Denver Center
Tue 12:00:29 PM 41.4519 -98.9711 98° East 499 574 37,000 444 Level Minneapolis Center
Tue 12:01:30 PM 41.4517 -98.7847 90° East 500 575 37,600 927 Climbing Minneapolis Center
Tue 12:02:32 PM 41.4633 -98.6008 85° East 499 574 38,900 677 Climbing Minneapolis Center
Tue 12:03:34 PM 41.4619 -98.4186 91° East 493 567 39,000 49 Climbing Minneapolis Center
Tue 12:04:35 PM 41.4631 -98.2319 89° East 497 572 39,000  Level Minneapolis Center
Tue 12:05:37 PM 41.4633 -98.0150 90° East 495 570 39,000  Level Minneapolis Center
Tue 12:06:39 PM 41.4633 -97.8317 90° East 493 567 39,000  Level Minneapolis Center
Tue 12:07:40 PM 41.4625 -97.6508 90° East 491 565 39,000  Level Minneapolis Center
Tue 12:08:42 PM 41.4633 -97.4692 90° East 489 563 39,000  Level Minneapolis Center
Tue 12:09:44 PM 41.4617 -97.2906 91° East 485 558 39,000  Level Minneapolis Center
Tue 12:10:45 PM 41.4603 -97.1122 91° East 482 555 39,000  Level Minneapolis Center
Tue 12:11:47 PM 41.4594 -96.9336 90° East 483 556 39,000  Level Minneapolis Center
Tue 12:12:49 PM 41.4572 -96.7561 91° East 480 552 39,000  Level Minneapolis Center
Tue 12:13:50 PM 41.4550 -96.5422 91° East 480 552 39,000  Level Minneapolis Center
Tue 12:14:52 PM 41.4528 -96.3656 91° East 477 549 39,000  Level Minneapolis Center
Tue 12:15:54 PM 41.4503 -96.1836 91° East 478 550 39,000  Level Minneapolis Center
Tue 12:16:55 PM 41.4472 -96.0061 91° East 479 551 39,000  Level Minneapolis Center
Tue 12:17:57 PM 41.4433 -95.8281 92° East 480 552 39,000  Level Minneapolis Center
Tue 12:18:59 PM 41.4383 -95.6497 92° East 482 555 39,000  Level Minneapolis Center
Tue 12:20:00 PM 41.4356 -95.4625 91° East 480 552 39,000  Level Minneapolis Center
Tue 12:21:02 PM 41.4319 -95.2864 92° East 477 549 39,000  Level Minneapolis Center
Tue 12:22:04 PM 41.4286 -95.1106 91° East 475 547 39,000  Level Minneapolis Center
Tue 12:23:05 PM 41.4244 -94.9364 92° East 471 542 39,000  Level Minneapolis Center
Tue 12:24:07 PM 41.4178 -94.7631 93° East 468 539 39,000  Level Minneapolis Center
Tue 12:25:09 PM 41.4128 -94.5558 92° East 468 539 39,000  Level Minneapolis Center
Tue 12:26:10 PM 41.4069 -94.3792 92° East 476 548 39,000  Level Minneapolis Center
Tue 12:27:12 PM 41.3997 -94.2028 93° East 478 550 39,000  Level Minneapolis Center
Tue 12:28:14 PM 41.3944 -94.0178 92° East 477 549 39,000  Level Minneapolis Center
Tue 12:29:15 PM 41.3878 -93.8414 93° East 478 550 39,000  Level Minneapolis Center
Tue 12:30:17 PM 41.3831 -93.6656 92° East 478 550 39,000  Level Minneapolis Center
Tue 12:31:19 PM 41.3758 -93.4894 93° East 479 551 39,000 -49 Level Minneapolis Center
Tue 12:32:20 PM 41.3706 -93.3122 92° East 481 554 38,900 -537 Descending Minneapolis Center
Tue 12:33:22 PM 41.3631 -93.1369 93° East 480 552 37,900 -919 Descending Minneapolis Center
Tue 12:34:24 PM 41.3531 -92.9244 94° East 481 554 37,000 -871 Descending Minneapolis Center
Tue 12:35:26 PM 41.3456 -92.7450 93° East 483 556 36,100 -878 Descending Minneapolis Center
Tue 12:36:27 PM 41.3375 -92.5658 93° East 485 558 35,200 -909 Descending Minneapolis Center
Tue 12:37:05 PM 41.3319 -92.4578 94° East 485 558 34,600 -900 Descending Chicago Center
Tue 12:38:07 PM 41.3236 -92.2839 94° East 488 562 33,700 -1,016 Descending Chicago Center
Tue 12:39:09 PM 41.3136 -92.0672 93° East 494 568 32,500 -1,016 Descending Chicago Center
Tue 12:40:11 PM 41.3039 -91.8881 94° East 492 566 31,600 -726 Descending Chicago Center
Tue 12:41:13 PM 41.2939 -91.7056 94° East 499 574 31,000 -290 Descending Chicago Center
Tue 12:42:15 PM 41.2839 -91.5244 94° East 500 575 31,000  Level Chicago Center
Tue 12:43:17 PM 41.2742 -91.3464 94° East 493 567 31,000  Level Chicago Center
Tue 12:44:19 PM 41.2636 -91.1622 94° East 495 570 31,000 -1,500 Level Chicago Center
Tue 12:45:21 PM 41.2503 -90.9475 95° East 488 562 27,900 -2,855 Descending Chicago Center
Tue 12:46:23 PM 41.2392 -90.7717 95° East 479 551 25,100 -2,032 Descending Chicago Center
Tue 12:47:25 PM 41.2297 -90.6011 94° East 465 535 23,700 -1,016 Descending Chicago Center
Tue 12:48:27 PM 41.2194 -90.4475 95° East 423 487 23,000 -339 Descending Chicago Center
Tue 12:49:29 PM 41.2089 -90.2956 95° East 413 475 23,000 -194 Level Chicago Center
Tue 12:50:31 PM 41.1992 -90.1433 95° East 412 474 22,600 -1,161 Descending Chicago Center
Tue 12:51:33 PM 41.1883 -89.9942 95° East 404 465 20,600 -2,129 Descending Chicago Center
Tue 12:52:35 PM 41.1767 -89.8211 95° East 389 448 18,200 -2,129 Descending Chicago Center
Tue 12:53:37 PM 41.1664 -89.6803 95° East 381 438 16,200 -1,452 Descending Chicago Center
Tue 12:54:39 PM 41.1619 -89.5422 92° East 375 432 15,200 -968 Descending Chicago Center
Tue 12:55:41 PM 41.1728 -89.4050 84° East 373 429 14,200 -968 Descending Chicago Center
Tue 12:56:43 PM 41.1831 -89.2692 84° East 370 426 13,200 -1,016 Descending Chicago Center
Tue 12:57:45 PM 41.1922 -89.1197 85° East 368 423 12,100 -1,016 Descending Chicago Center
Tue 12:58:47 PM 41.2339 -88.9994 65° Northeast 363 418 11,100 -1,016 Descending Chicago Center
Tue 12:59:49 PM 41.2756 -88.8825 65° Northeast 352 405 10,000 -1,016 Descending Chicago Center
Tue 01:00:51 PM 41.3156 -88.7739 64° Northeast 331 381 9,000 -1,065 Descending Chicago Center
Tue 01:01:53 PM 41.3642 -88.6467 63° Northeast 324 373 7,800 -1,065 Descending Chicago Center
Tue 01:02:55 PM 41.3958 -88.5431 68° East 310 357 6,800 -871 Descending Chicago Center
Tue 01:03:57 PM 41.4250 -88.4358 70° East 309 356 6,000 -387 Descending Chicago Center
Tue 01:04:59 PM 41.4536 -88.3331 70° East 301 346 6,000 -242 Level Chicago Center
Tue 01:06:01 PM 41.4836 -88.2289 69° East 300 345 5,500 -484 Descending Chicago Center
Tue 01:07:03 PM 41.5136 -88.1228 69° East 305 351 5,000 -242 Descending Chicago Center
Tue 01:08:05 PM 41.5439 -88.0164 69° East 302 348 5,000 -48 Level Chicago Center
Tue 01:09:07 PM 41.5697 -87.9097 72° East 301 346 4,900 -48 Descending Chicago Center
Tue 01:10:09 PM 41.5919 -87.7975 75° East 277 319 4,900 -484 Level Chicago Center
Tue 01:11:11 PM 41.6108 -87.7058 75° East 264 304 3,900 -927 Descending Chicago Center
Tue 01:12:12 PM 41.6428 -87.6203 63° Northeast 262 302 3,000 -585 Descending Chicago Center
Tue 01:13:14 PM 41.6922 -87.5889 25° Northeast 238 274 2,700 -288 Descending Chicago Center
Tue 01:14:17 PM 41.7444 -87.6072 345° North 212 244 2,400 -407 Descending Chicago Center
Tue 01:15:12 PM 41.7833 -87.6500 321° Northwest 186 214 1,900 -446 Descending Chicago TRACON
Tue 01:16:18 PM 41.8167 -87.7000 312° West 167 192 1,500 -364 Descending Chicago TRACON

Login

Don't have an account? Register now (free) for customized features, flight alerts, and more!